createdAt,value
2023-04-30T00:00:39.491Z,99223.25
2023-04-30T00:04:00.919Z,99227.42
2023-04-30T00:07:03.280Z,99228.20
2023-04-30T00:10:05.641Z,99228.42
2023-04-30T00:13:07.681Z,99231.52
2023-04-30T00:16:09.468Z,99232.70
2023-04-30T00:19:11.177Z,99227.10
2023-04-30T00:22:12.904Z,99225.80
2023-04-30T00:25:14.713Z,99225.53
2023-04-30T00:28:16.448Z,99224.91
2023-04-30T00:31:18.081Z,99232.11
2023-04-30T00:34:19.860Z,99230.86
2023-04-30T00:37:21.487Z,99233.94
2023-04-30T00:40:23.280Z,99233.35
2023-04-30T00:43:25.025Z,99235.39
2023-04-30T00:46:26.964Z,99234.13
2023-04-30T00:49:28.854Z,99233.52
2023-04-30T00:52:30.601Z,99232.68
2023-04-30T00:55:32.196Z,99237.77
2023-04-30T00:58:33.874Z,99236.98
2023-04-30T01:01:35.752Z,99238.13
2023-04-30T01:04:37.498Z,99232.57
2023-04-30T01:07:39.296Z,99233.62
2023-04-30T01:10:51.816Z,99233.59
2023-04-30T01:14:17.883Z,99237.86
2023-04-30T01:17:45.567Z,99239.90
2023-04-30T01:20:54.563Z,99239.71
2023-04-30T01:24:17.558Z,99242.67
2023-04-30T01:27:19.147Z,99241.27
2023-04-30T01:30:21.485Z,99241.61
2023-04-30T01:33:23.081Z,99244.02
2023-04-30T01:37:04.067Z,99245.41
2023-04-30T01:40:12.559Z,99243.98
2023-04-30T01:43:14.233Z,99245.23
2023-04-30T01:46:24.454Z,99246.64
2023-04-30T01:49:33.127Z,99245.84
2023-04-30T01:52:42.371Z,99244.51
2023-04-30T01:55:50.160Z,99243.96
2023-04-30T01:58:52.474Z,99243.97
2023-04-30T02:01:54.293Z,99242.09
2023-04-30T02:04:56.115Z,99246.94
2023-04-30T02:07:57.912Z,99249.27
2023-04-30T02:10:59.582Z,99250.49
2023-04-30T02:14:01.156Z,99255.30
2023-04-30T02:17:02.811Z,99254.77
2023-04-30T02:20:05.160Z,99257.71
2023-04-30T02:23:06.930Z,99259.60
2023-04-30T02:26:08.638Z,99259.96
2023-04-30T02:29:10.263Z,99255.79
2023-04-30T02:32:11.896Z,99256.53
2023-04-30T02:35:13.464Z,99258.09
2023-04-30T02:38:15.271Z,99256.85
2023-04-30T02:41:16.845Z,99256.81
2023-04-30T02:44:18.546Z,99265.63
2023-04-30T02:47:20.153Z,99266.15
2023-04-30T02:50:21.888Z,99268.76
2023-04-30T02:53:23.501Z,99269.83
2023-04-30T02:56:25.078Z,99272.34
2023-04-30T02:59:26.809Z,99271.20
2023-04-30T03:02:28.449Z,99274.38
2023-04-30T03:05:30.301Z,99275.02
2023-04-30T03:08:31.999Z,99275.60
2023-04-30T03:11:33.632Z,99276.36
2023-04-30T03:14:35.302Z,99276.25
2023-04-30T03:17:36.984Z,99278.36
2023-04-30T03:20:38.666Z,99279.41
2023-04-30T03:23:40.244Z,99281.88
2023-04-30T03:26:42.744Z,99283.81
2023-04-30T03:29:44.466Z,99286.95
2023-04-30T03:32:46.157Z,99289.85
2023-04-30T03:35:47.802Z,99289.52
2023-04-30T03:38:49.444Z,99286.77
2023-04-30T03:41:51.185Z,99288.59
2023-04-30T03:44:52.875Z,99294.43
2023-04-30T03:47:54.608Z,99294.02
2023-04-30T03:50:56.314Z,99301.64
2023-04-30T03:53:58.006Z,99307.48
2023-04-30T03:57:00.531Z,99309.14
2023-04-30T04:00:03.108Z,99311.35
2023-04-30T04:03:05.022Z,99317.42
2023-04-30T04:06:07.113Z,99323.71
2023-04-30T04:09:09.024Z,99324.05
2023-04-30T04:12:10.668Z,99332.28
2023-04-30T04:15:12.536Z,99332.83
2023-04-30T04:18:14.204Z,99337.07
2023-04-30T04:21:16.695Z,99344.48
2023-04-30T04:24:18.302Z,99349.30
2023-04-30T04:27:19.917Z,99347.44
2023-04-30T04:30:21.751Z,99345.08
2023-04-30T04:33:23.625Z,99348.56
2023-04-30T04:36:26.503Z,99352.00
2023-04-30T04:39:28.210Z,99358.05
2023-04-30T04:42:29.823Z,99363.45
2023-04-30T04:45:31.526Z,99369.25
2023-04-30T04:48:33.204Z,99373.32
2023-04-30T04:51:34.850Z,99373.48
2023-04-30T04:54:38.475Z,99378.27
2023-04-30T04:57:40.200Z,99383.10
2023-04-30T05:00:41.884Z,99387.27
2023-04-30T05:03:44.069Z,99396.66
2023-04-30T05:06:46.028Z,99397.38
2023-04-30T05:09:47.802Z,99398.86
2023-04-30T05:12:49.406Z,99403.70
2023-04-30T05:15:53.111Z,99409.95
2023-04-30T05:18:55.103Z,99413.64
2023-04-30T05:21:56.720Z,99427.95
2023-04-30T05:24:58.421Z,99436.00
2023-04-30T05:28:00.122Z,99439.16
2023-04-30T05:31:01.910Z,99447.36
2023-04-30T05:34:03.660Z,99452.45
2023-04-30T05:37:05.491Z,99455.86
2023-04-30T05:40:10.549Z,99462.17
2023-04-30T05:43:12.367Z,99464.98
2023-04-30T05:46:14.649Z,99471.73
2023-04-30T05:49:16.560Z,99476.97
2023-04-30T05:52:18.240Z,99483.54
2023-04-30T05:55:20.191Z,99482.92
2023-04-30T05:58:22.056Z,99491.60
2023-04-30T06:01:25.235Z,99496.79
2023-04-30T06:04:26.939Z,99501.53
2023-04-30T06:07:28.734Z,99502.80
2023-04-30T06:10:30.448Z,99507.91
2023-04-30T06:13:32.532Z,99508.36
2023-04-30T06:16:34.148Z,99514.21
2023-04-30T06:19:35.901Z,99516.69
2023-04-30T06:22:37.516Z,99520.00
2023-04-30T06:25:39.346Z,99527.09
2023-04-30T06:28:41.303Z,99524.65
2023-04-30T06:31:43.085Z,99531.52
2023-04-30T06:34:44.791Z,99534.20
2023-04-30T06:37:46.392Z,99535.70
2023-04-30T06:40:48.120Z,99546.15
2023-04-30T06:43:49.758Z,99549.14
2023-04-30T06:46:51.362Z,99552.21
2023-04-30T06:49:53.381Z,99555.98
2023-04-30T06:52:55.261Z,99559.47
2023-04-30T06:55:56.975Z,99567.83
2023-04-30T06:58:58.592Z,99568.77
2023-04-30T07:02:00.709Z,99572.41
2023-04-30T07:05:02.711Z,99574.54
2023-04-30T07:08:04.912Z,99577.67
2023-04-30T07:11:06.671Z,99586.92
2023-04-30T07:14:08.424Z,99587.73
2023-04-30T07:17:10.208Z,99590.33
2023-04-30T07:20:12.757Z,99593.31
2023-04-30T07:23:14.365Z,99600.81
2023-04-30T07:26:15.977Z,99602.78
2023-04-30T07:29:17.736Z,99608.59
2023-04-30T07:32:19.374Z,99610.25
2023-04-30T07:35:21.180Z,99614.29
2023-04-30T07:38:22.932Z,99612.34
2023-04-30T07:41:25.262Z,99618.39
2023-04-30T07:44:26.872Z,99617.58
2023-04-30T07:47:28.563Z,99621.11
2023-04-30T07:50:30.923Z,99620.61
2023-04-30T07:53:32.645Z,99623.80
2023-04-30T07:56:34.509Z,99624.43
2023-04-30T07:59:36.109Z,99625.69
2023-04-30T08:02:37.777Z,99634.62
2023-04-30T08:05:39.742Z,99632.42
2023-04-30T08:08:41.345Z,99639.20
2023-04-30T08:11:42.933Z,99639.34
2023-04-30T08:14:44.787Z,99641.30
2023-04-30T08:17:46.475Z,99644.20
2023-04-30T08:20:48.232Z,99643.58
2023-04-30T08:23:49.821Z,99651.04
2023-04-30T08:26:53.387Z,99649.73
2023-04-30T08:29:56.041Z,99649.38
2023-04-30T08:32:58.016Z,99654.22
2023-04-30T08:35:59.643Z,99653.92
2023-04-30T08:39:01.226Z,99650.66
2023-04-30T08:42:04.549Z,99657.58
2023-04-30T08:45:08.934Z,99657.94
2023-04-30T08:48:11.278Z,99662.58
2023-04-30T08:51:13.120Z,99665.84
2023-04-30T08:54:14.779Z,99672.40
2023-04-30T08:57:16.418Z,99670.69
2023-04-30T09:00:18.383Z,99675.46
2023-04-30T09:03:20.582Z,99674.92
2023-04-30T09:06:22.482Z,99676.03
2023-04-30T09:09:31.090Z,99673.70
2023-04-30T09:12:32.925Z,99672.48
2023-04-30T09:15:36.887Z,99679.18
2023-04-30T09:18:41.933Z,99681.29
2023-04-30T09:21:43.633Z,99680.05
2023-04-30T09:24:50.361Z,99678.73
2023-04-30T09:28:08.324Z,99681.95
2023-04-30T09:31:20.220Z,99682.19
2023-04-30T09:34:34.328Z,99682.40
2023-04-30T09:37:39.066Z,99673.42
2023-04-30T09:40:42.225Z,99675.89
2023-04-30T09:43:45.255Z,99676.49
2023-04-30T09:46:46.976Z,99682.09
2023-04-30T09:49:50.620Z,99683.00
2023-04-30T09:52:53.921Z,99677.27
2023-04-30T09:55:58.540Z,99676.70
2023-04-30T09:59:00.906Z,99678.34
2023-04-30T10:02:04.780Z,99683.46
2023-04-30T10:05:07.010Z,99679.41
2023-04-30T10:08:15.417Z,99677.88
2023-04-30T10:11:21.674Z,99675.52
2023-04-30T10:14:24.548Z,99675.75
2023-04-30T10:17:28.278Z,99675.48
2023-04-30T10:20:32.098Z,99666.67
2023-04-30T10:23:34.095Z,99670.67
2023-04-30T10:26:35.952Z,99672.89
2023-04-30T10:29:37.607Z,99664.31
2023-04-30T10:32:47.011Z,99664.99
2023-04-30T10:36:01.669Z,99666.09
2023-04-30T10:39:03.538Z,99665.45
2023-04-30T10:42:06.806Z,99664.11
2023-04-30T10:45:10.531Z,99662.45
2023-04-30T10:48:15.125Z,99664.82
2023-04-30T10:51:17.678Z,99660.94
2023-04-30T10:54:25.843Z,99661.96
2023-04-30T10:57:29.562Z,99655.95
2023-04-30T11:00:31.164Z,99650.50
2023-04-30T11:03:34.929Z,99652.39
2023-04-30T11:06:54.827Z,99656.64
2023-04-30T11:09:57.688Z,99645.08
2023-04-30T11:13:04.846Z,99652.13
2023-04-30T11:16:06.867Z,99652.43
2023-04-30T11:19:13.788Z,99654.58
2023-04-30T11:22:17.085Z,99651.47
2023-04-30T11:25:19.870Z,99653.66
2023-04-30T11:28:24.641Z,99649.96
2023-04-30T11:31:33.522Z,99654.98
2023-04-30T11:34:35.221Z,99644.09
2023-04-30T11:37:39.655Z,99648.48
2023-04-30T11:40:41.541Z,99647.80
2023-04-30T11:43:43.430Z,99655.04
2023-04-30T11:46:45.136Z,99654.87
2023-04-30T11:49:46.749Z,99652.61
2023-04-30T11:52:52.706Z,99656.59
2023-04-30T11:55:54.541Z,99653.98
2023-04-30T11:58:56.372Z,99660.48
2023-04-30T12:01:58.471Z,99657.22
2023-04-30T12:05:00.058Z,99655.04
2023-04-30T12:08:04.728Z,99653.64
2023-04-30T12:11:19.911Z,99652.91
2023-04-30T12:14:25.150Z,99654.41
2023-04-30T12:17:36.021Z,99651.92
2023-04-30T12:20:38.207Z,99652.55
2023-04-30T12:23:40.070Z,99653.88
2023-04-30T12:26:42.135Z,99651.79
2023-04-30T12:29:44.312Z,99652.91
2023-04-30T12:32:48.865Z,99650.55
2023-04-30T12:35:53.114Z,99654.40
2023-04-30T12:39:02.372Z,99653.48
2023-04-30T12:42:04.067Z,99646.64
2023-04-30T12:45:06.520Z,99642.38
2023-04-30T12:48:08.330Z,99642.24
2023-04-30T12:51:10.843Z,99647.33
2023-04-30T12:54:12.514Z,99648.77
2023-04-30T12:57:14.157Z,99642.56
2023-04-30T13:00:15.736Z,99640.63
2023-04-30T13:03:21.520Z,99641.33
2023-04-30T13:06:23.396Z,99639.02
2023-04-30T13:09:25.205Z,99639.95
2023-04-30T13:12:26.803Z,99642.25
2023-04-30T13:15:28.710Z,99640.69
2023-04-30T13:18:30.457Z,99636.19
2023-04-30T13:21:32.066Z,99638.72
2023-04-30T13:24:33.677Z,99641.77
2023-04-30T13:27:36.211Z,99639.90
2023-04-30T13:30:37.857Z,99642.86
2023-04-30T13:33:39.470Z,99641.88
2023-04-30T13:36:41.204Z,99645.27
2023-04-30T13:39:42.907Z,99640.09
2023-04-30T13:42:46.471Z,99636.16
2023-04-30T13:45:48.207Z,99634.70
2023-04-30T13:48:49.866Z,99631.73
2023-04-30T13:51:51.515Z,99629.33
2023-04-30T13:54:53.079Z,99631.89
2023-04-30T13:57:54.709Z,99633.48
2023-04-30T14:00:56.441Z,99633.66
2023-04-30T14:03:58.662Z,99632.23
2023-04-30T14:07:02.056Z,99633.18
2023-04-30T14:10:03.883Z,99634.83
2023-04-30T14:13:05.564Z,99633.96
2023-04-30T14:16:07.458Z,99632.45
2023-04-30T14:19:09.040Z,99633.25
2023-04-30T14:22:10.702Z,99639.71
2023-04-30T14:25:12.319Z,99638.35
2023-04-30T14:28:13.943Z,99636.42
2023-04-30T14:31:15.864Z,99637.91
2023-04-30T14:34:17.494Z,99637.90
2023-04-30T14:37:19.740Z,99639.33
2023-04-30T14:40:21.544Z,99640.38
2023-04-30T14:43:23.175Z,99637.97
2023-04-30T14:46:24.844Z,99634.38
2023-04-30T14:49:27.029Z,99636.68
2023-04-30T14:55:29.117Z,99638.84
2023-04-30T14:58:30.933Z,99637.25
2023-04-30T15:01:32.680Z,99642.78
2023-04-30T15:04:34.305Z,99637.68
2023-04-30T15:07:35.974Z,99636.59
2023-04-30T15:10:37.616Z,99640.65
2023-04-30T15:13:39.654Z,99639.83
2023-04-30T15:16:41.289Z,99639.89
2023-04-30T15:19:42.956Z,99641.80
2023-04-30T15:22:44.660Z,99642.21
2023-04-30T15:25:46.382Z,99642.53
2023-04-30T15:28:47.985Z,99639.64
2023-04-30T15:31:49.829Z,99641.41
2023-04-30T15:34:51.648Z,99640.74
2023-04-30T15:37:53.842Z,99640.79
2023-04-30T15:40:55.565Z,99638.03
2023-04-30T15:43:57.168Z,99637.10
2023-04-30T15:46:58.933Z,99638.54
2023-04-30T15:50:00.676Z,99644.52
2023-04-30T15:53:02.268Z,99644.48
2023-04-30T15:56:04.117Z,99646.46
2023-04-30T15:59:05.816Z,99647.58
2023-04-30T16:02:07.530Z,99646.39
2023-04-30T16:05:09.424Z,99642.69
2023-04-30T16:08:11.221Z,99639.84
2023-04-30T16:11:13.172Z,99636.77
2023-04-30T16:14:14.883Z,99638.66
2023-04-30T16:17:16.697Z,99637.38
2023-04-30T16:20:18.448Z,99641.20
2023-04-30T16:23:20.080Z,99642.48
2023-04-30T16:26:21.725Z,99639.02
2023-04-30T16:29:23.346Z,99644.34
2023-04-30T16:32:25.597Z,99643.08
2023-04-30T16:35:27.287Z,99643.11
2023-04-30T16:38:28.996Z,99642.81
2023-04-30T16:41:30.641Z,99644.80
2023-04-30T16:44:32.256Z,99647.02
2023-04-30T16:47:33.894Z,99647.84
2023-04-30T16:50:35.704Z,99645.76
2023-04-30T16:53:37.648Z,99656.02
2023-04-30T16:56:39.234Z,99656.45
2023-04-30T16:59:40.898Z,99660.34
2023-04-30T17:02:43.479Z,99661.12
2023-04-30T17:05:45.167Z,99663.83
2023-04-30T17:08:46.796Z,99667.39
2023-04-30T17:11:48.586Z,99666.66
2023-04-30T17:14:50.281Z,99668.75
2023-04-30T17:17:51.964Z,99668.81
2023-04-30T17:20:53.633Z,99666.82
2023-04-30T17:23:56.070Z,99677.24
2023-04-30T17:26:57.767Z,99677.81
2023-04-30T17:29:59.449Z,99678.91
2023-04-30T17:33:01.272Z,99685.45
2023-04-30T17:36:02.937Z,99690.86
2023-04-30T17:39:04.768Z,99691.20
2023-04-30T17:42:06.401Z,99694.39
2023-04-30T17:45:08.459Z,99700.70
2023-04-30T17:48:10.122Z,99701.94
2023-04-30T17:51:11.800Z,99706.47
2023-04-30T17:54:13.397Z,99710.98
2023-04-30T17:57:15.046Z,99714.67
2023-04-30T18:00:16.721Z,99717.48
2023-04-30T18:03:18.478Z,99720.23
2023-04-30T18:06:20.214Z,99721.20
2023-04-30T18:09:21.834Z,99726.67
2023-04-30T18:12:23.702Z,99729.71
2023-04-30T18:15:25.928Z,99728.04
2023-04-30T18:18:27.725Z,99728.59
2023-04-30T18:21:29.375Z,99735.46
2023-04-30T18:24:31.007Z,99737.66
2023-04-30T18:27:32.777Z,99743.41
2023-04-30T18:30:34.935Z,99745.74
2023-04-30T18:33:36.538Z,99752.61
2023-04-30T18:36:38.219Z,99754.31
2023-04-30T18:39:39.833Z,99757.13
2023-04-30T18:42:41.544Z,99763.92
2023-04-30T18:45:43.166Z,99768.02
2023-04-30T18:48:44.767Z,99771.05
2023-04-30T18:51:46.350Z,99777.92
2023-04-30T18:54:47.810Z,99778.23
2023-04-30T18:57:49.482Z,99778.20
2023-04-30T19:00:51.300Z,99782.89
2023-04-30T19:03:53.110Z,99784.80
2023-04-30T19:06:55.184Z,99786.77
2023-04-30T19:09:57.422Z,99792.33
2023-04-30T19:12:59.240Z,99788.65
2023-04-30T19:16:01.862Z,99789.02
2023-04-30T19:19:03.589Z,99791.79
2023-04-30T19:22:05.220Z,99800.49
2023-04-30T19:25:06.853Z,99802.38
2023-04-30T19:28:08.580Z,99802.42
2023-04-30T19:31:10.569Z,99805.95
2023-04-30T19:34:12.266Z,99808.45
2023-04-30T19:37:13.941Z,99808.04
2023-04-30T19:40:15.472Z,99813.61
2023-04-30T19:43:18.021Z,99815.85
2023-04-30T19:46:19.693Z,99814.53
2023-04-30T19:49:21.434Z,99817.58
2023-04-30T19:52:23.291Z,99816.09
2023-04-30T19:55:25.041Z,99815.36
2023-04-30T19:58:26.694Z,99820.44
2023-04-30T20:01:28.383Z,99823.78
2023-04-30T20:04:30.116Z,99823.93
2023-04-30T20:07:31.768Z,99828.30
2023-04-30T20:10:33.854Z,99832.29
2023-04-30T20:13:35.567Z,99830.77
2023-04-30T20:16:37.637Z,99834.02
2023-04-30T20:19:39.393Z,99835.70
2023-04-30T20:22:40.912Z,99840.31
2023-04-30T20:25:43.884Z,99850.35
2023-04-30T20:28:45.547Z,99854.69
2023-04-30T20:31:47.081Z,99851.63
2023-04-30T20:34:48.856Z,99851.11
2023-04-30T20:37:50.738Z,99855.48
2023-04-30T20:40:52.220Z,99860.24
2023-04-30T20:43:54.172Z,99861.52
2023-04-30T20:46:55.885Z,99858.71
2023-04-30T20:49:57.791Z,99858.81
2023-04-30T20:52:59.690Z,99861.69
2023-04-30T20:56:01.381Z,99864.29
2023-04-30T20:59:03.052Z,99866.27
2023-04-30T21:02:04.803Z,99867.92
2023-04-30T21:05:07.290Z,99866.85
2023-04-30T21:08:08.954Z,99868.92
2023-04-30T21:11:10.483Z,99871.48
2023-04-30T21:14:12.227Z,99870.98
2023-04-30T21:17:13.761Z,99871.39
2023-04-30T21:20:15.681Z,99871.27
2023-04-30T21:23:17.296Z,99871.52
2023-04-30T21:26:19.270Z,99872.35
2023-04-30T21:29:21.457Z,99874.17
2023-04-30T21:32:23.092Z,99876.53
2023-04-30T21:35:24.943Z,99880.96
2023-04-30T21:38:26.540Z,99885.10
2023-04-30T21:41:28.571Z,99882.02
2023-04-30T21:44:33.450Z,99885.94
2023-04-30T21:47:35.130Z,99886.48
2023-04-30T21:50:36.743Z,99886.51
2023-04-30T21:53:38.578Z,99888.80
2023-04-30T21:56:40.082Z,99892.35
2023-04-30T21:59:41.782Z,99893.52
2023-04-30T22:02:43.495Z,99893.83
2023-04-30T22:05:45.480Z,99892.06
2023-04-30T22:08:47.297Z,99896.23
2023-04-30T22:11:48.799Z,99897.61
2023-04-30T22:14:54.130Z,99901.90
2023-04-30T22:17:55.817Z,99903.02
2023-04-30T22:20:57.693Z,99901.70
2023-04-30T22:23:59.339Z,99904.77
2023-04-30T22:27:00.825Z,99908.84
2023-04-30T22:30:02.741Z,99909.36
2023-04-30T22:33:04.426Z,99911.18
2023-04-30T22:36:06.107Z,99915.45
2023-04-30T22:39:07.711Z,99920.02
2023-04-30T22:42:10.060Z,99924.42
2023-04-30T22:45:11.783Z,99921.05
2023-04-30T22:48:13.279Z,99922.43
2023-04-30T22:51:14.950Z,99926.00
2023-04-30T22:54:16.565Z,99928.89
2023-04-30T22:57:18.167Z,99931.77
2023-04-30T23:00:20.301Z,99929.08
2023-04-30T23:03:22.537Z,99931.67
2023-04-30T23:06:24.241Z,99932.57
2023-04-30T23:09:26.124Z,99935.01
2023-04-30T23:12:28.082Z,99938.30
2023-04-30T23:15:29.664Z,99935.98
2023-04-30T23:18:32.196Z,99936.54
2023-04-30T23:21:34.554Z,99938.62
2023-04-30T23:24:36.313Z,99937.46
2023-04-30T23:27:37.912Z,99940.52
2023-04-30T23:30:39.534Z,99936.06
2023-04-30T23:33:41.421Z,99943.05
2023-04-30T23:36:43.076Z,99938.98
2023-04-30T23:39:44.755Z,99943.13
2023-04-30T23:42:46.457Z,99943.33
2023-04-30T23:45:48.034Z,99938.89
2023-04-30T23:48:49.696Z,99940.95
2023-04-30T23:51:51.374Z,99944.41
2023-04-30T23:54:52.986Z,99945.15
2023-04-30T23:57:54.686Z,99947.56
